Latest Weather Observations for Norseman Airport

IDW60801

Issued at 10:05 am WST Tuesday 29 July 2014 (issued every 30 minutes, with the page automatically refreshed every 10 minutes)

About weather observations | Map of weather stations | Latest weather observations for WA | Other Formats
Station Details ID: 012009 Name: NORSEMAN AERO Lat: -32.21 Lon: 121.75 Height: 262.5 m
Data from the previous 72 hours. | See also: Recent months at Norseman Airport
Date/Time
WST
Temp
°C
App
Temp
°C
Dew
Point
Rel
Hum
%
Delta-T
°C
Wind Press
QNH
hPa
Press
MSL
hPa
Rain
since 9 am
mm
Dir
 
Spd
km/h
Gust
km/h
Spd
kts
Gust
kts
29/10:00am 14.7 10.2 10.1 74 2.4 W 24 30 13 16 1023.8 1024.0 0.0
29/09:30am 14.1 9.9 9.7 75 2.3 W 22 28 12 15 1023.7 - 0.0
29/09:00am 11.6 10.1 8.6 82 1.5 NW 6 11 3 6 1023.7 1023.9 0.0
29/08:30am 10.0 8.3 7.4 84 1.3 N 6 9 3 5 1023.6 - 0.0
29/08:00am 9.1 7.3 7.9 92 0.6 NE 7 11 4 6 1023.3 1023.5 0.0
29/07:30am 7.1 4.7 6.8 98 0.1 NNE 9 9 5 5 1023.0 - 0.0
29/07:00am 6.0 3.3 5.6 97 0.2 NE 9 9 5 5 1022.7 1022.9 0.0
29/06:30am 6.2 3.5 5.6 96 0.3 NNE 9 11 5 6 1022.4 - 0.0
29/06:00am 6.9 4.7 6.3 96 0.3 NNE 7 9 4 5 1022.1 1022.3 0.0
29/05:30am 6.1 3.7 5.1 93 0.4 NNE 7 11 4 6 1021.9 - 0.0
29/05:00am 7.0 5.2 5.5 90 0.7 N 4 6 2 3 1021.4 1021.6 0.0
29/04:30am 9.0 6.7 7.5 90 0.7 NW 9 13 5 7 1021.3 - 0.0
29/04:00am 9.3 7.0 7.6 89 0.8 WNW 9 13 5 7 1021.4 1021.6 0.0
29/03:30am 9.4 7.1 7.3 87 1.0 WNW 9 13 5 7 1021.4 - 0.0
29/03:00am 9.6 7.2 7.2 85 1.1 W 9 13 5 7 1021.5 1021.7 0.0
29/02:30am 10.1 7.0 7.3 83 1.4 W 13 17 7 9 1021.3 - 0.0
29/02:00am 10.2 7.4 7.1 81 1.5 W 11 17 6 9 1021.3 1021.5 0.0
29/01:30am 10.7 7.2 7.2 79 1.7 W 15 19 8 10 1021.3 - 0.0
29/01:00am 11.1 7.6 7.0 76 2.0 W 15 19 8 10 1021.4 1021.6 0.0
29/12:30am 12.0 7.8 7.5 74 2.2 W 19 32 10 17 1021.3 - 0.0
29/12:00am 12.5 7.8 7.6 72 2.4 W 22 28 12 15 1021.3 1021.5 0.0
 
Date/Time
WST
Temp
°C
App
Temp
°C
Dew
Point
Rel
Hum
%
Delta-T
°C
Wind Press
QNH
hPa
Press
MSL
hPa
Rain
since 9 am
mm
Dir
 
Spd
km/h
Gust
km/h
Spd
kts
Gust
kts
28/11:30pm 12.1 8.2 7.2 72 2.4 WNW 17 22 9 12 1021.4 - 0.0
28/11:00pm 11.7 8.4 6.6 71 2.4 NW 13 17 7 9 1021.5 1021.7 0.0
28/10:30pm 11.7 8.4 6.4 70 2.5 NW 13 17 7 9 1021.8 - 0.0
28/10:00pm 11.6 8.3 6.3 70 2.5 NW 13 15 7 8 1022.0 1022.2 0.0
28/09:30pm 12.0 8.7 6.5 69 2.6 NW 13 17 7 9 1022.1 - 0.0
28/09:00pm 12.6 9.0 6.9 68 2.8 NNW 15 17 8 9 1021.9 1022.1 0.0
28/08:30pm 13.4 10.5 6.7 64 3.3 NNW 11 13 6 7 1021.8 - 0.0
28/08:00pm 13.6 11.3 7.6 67 3.0 NW 9 9 5 5 1022.0 1022.2 0.0
28/07:30pm 13.9 11.5 7.0 63 3.4 WNW 9 11 5 6 1021.9 - 0.0
28/07:00pm 14.0 11.2 6.8 62 3.5 WNW 11 15 6 8 1021.6 1021.8 0.0
28/06:30pm 14.3 10.7 6.6 60 3.8 W 15 20 8 11 1021.2 - 0.0
28/06:00pm 14.4 10.8 6.7 60 3.8 W 15 19 8 10 1020.9 1021.1 0.0
28/05:30pm 15.5 9.8 6.8 56 4.3 W 26 33 14 18 1020.5 - 0.0
28/05:00pm 16.4 11.1 6.8 53 4.8 W 24 33 13 18 1020.0 1020.2 0.0
28/04:30pm 17.0 11.3 6.8 51 5.1 W 26 35 14 19 1019.7 - 0.0
28/04:00pm 17.5 11.4 6.4 48 5.5 W 28 39 15 21 1019.6 1019.7 0.0
28/03:30pm 18.4 13.1 6.6 46 6.0 W 24 32 13 17 1019.4 - 0.0
28/03:00pm 18.4 12.8 7.2 48 5.7 W 26 33 14 18 1019.4 1019.5 0.0
28/02:30pm 18.2 12.3 7.3 49 5.6 W 28 35 15 19 1019.4 - 0.0
28/02:00pm 18.3 12.4 7.7 50 5.4 WNW 28 35 15 19 1019.6 1019.7 0.0
28/01:30pm 18.3 12.8 7.7 50 5.5 WNW 26 35 14 19 1019.9 - 0.0
28/01:00pm 17.9 12.1 7.9 52 5.1 W 28 39 15 21 1020.3 1020.5 0.0
28/12:30pm 17.0 11.6 8.2 56 4.5 W 26 35 14 19 1020.7 - 0.0
28/12:00pm 16.0 10.6 8.2 60 4.0 W 26 35 14 19 1021.2 1021.4 0.0
28/11:30am 15.8 10.1 8.3 61 3.8 W 28 39 15 21 1021.6 - 0.0
28/11:00am 15.1 10.3 8.8 66 3.2 W 24 32 13 17 1021.9 1022.1 0.0
28/10:30am 14.0 8.8 8.8 71 2.7 WNW 26 35 14 19 1022.1 - 0.0
28/10:00am 12.8 8.0 8.7 76 2.1 W 24 33 13 18 1022.2 1022.4 0.0
28/09:30am 11.6 8.2 9.3 86 1.2 WNW 17 24 9 13 1022.4 - 0.0
28/09:00am 10.9 7.5 9.2 89 0.9 W 17 24 9 13 1022.3 1022.5 0.0
28/08:30am 9.8 6.7 8.9 94 0.4 WNW 15 19 8 10 1022.0 - 0.0
28/08:00am 8.9 5.7 8.6 98 0.1 WNW 15 19 8 10 1021.9 1022.1 0.0
28/07:30am 7.9 6.1 7.8 99 0.0 WNW 7 11 4 6 1021.5 - 0.0
28/07:00am 6.3 4.6 6.0 98 0.1 W 4 7 2 4 1021.2 1021.4 0.0
28/06:30am 7.9 6.1 7.8 99 0.0 W 7 13 4 7 1021.0 - 0.0
28/06:00am 7.9 6.3 7.8 99 0.0 WSW 6 9 3 5 1020.8 1021.0 0.0
28/05:30am 7.2 5.3 6.8 97 0.2 W 6 9 3 5 1020.6 - 0.0
28/05:00am 7.7 5.3 7.1 96 0.3 WSW 9 9 5 5 1020.4 1020.6 0.0
28/04:30am 8.4 6.1 7.6 95 0.4 WSW 9 11 5 6 1020.5 - 0.0
28/04:00am 8.6 6.7 7.5 93 0.5 W 7 11 4 6 1020.5 1020.7 0.0
28/03:30am 9.1 7.2 7.7 91 0.7 WNW 7 11 4 6 1020.6 - 0.0
28/03:00am 9.4 7.2 7.7 89 0.8 WNW 9 13 5 7 1020.7 1020.9 0.0
28/02:30am 9.7 7.4 7.6 87 1.0 NW 9 11 5 6 1020.7 - 0.0
28/02:00am 9.8 6.7 7.2 84 1.2 NW 13 17 7 9 1020.8 1021.0 0.0
28/01:30am 9.8 7.4 6.9 82 1.4 NW 9 13 5 7 1020.8 - 0.0
28/01:00am 10.4 8.1 7.3 81 1.5 NNW 9 13 5 7 1021.0 1021.2 0.0
28/12:30am 10.7 8.4 7.4 80 1.6 NW 9 11 5 6 1020.9 - 0.0
28/12:00am 12.0 9.8 7.7 75 2.1 NW 9 13 5 7 1021.0 1021.2 0.0
 
Date/Time
WST
Temp
°C
App
Temp
°C
Dew
Point
Rel
Hum
%
Delta-T
°C
Wind Press
QNH
hPa
Press
MSL
hPa
Rain
since 9 am
mm
Dir
 
Spd
km/h
Gust
km/h
Spd
kts
Gust
kts
27/11:30pm 13.2 9.6 8.3 72 2.5 WNW 17 26 9 14 1021.1 - 0.0
27/11:00pm 13.3 8.7 8.0 70 2.6 WNW 22 30 12 16 1021.2 1021.4 0.0
27/10:30pm 13.5 9.6 7.3 66 3.1 NW 17 24 9 13 1021.3 - 0.0
27/10:00pm 12.4 10.0 7.1 70 2.6 WNW 9 11 5 6 1021.3 1021.5 0.0
27/09:30pm 12.6 9.3 6.6 67 2.9 NW 13 19 7 10 1021.2 - 0.0
27/09:00pm 12.6 8.5 6.4 66 3.0 NW 17 20 9 11 1021.2 1021.4 0.0
27/08:30pm 10.6 8.4 6.4 75 2.0 NW 7 9 4 5 1021.3 - 0.0
27/08:00pm 10.7 8.6 5.9 72 2.2 W 6 9 3 5 1021.2 1021.4 0.0
27/07:30pm 12.2 10.0 6.3 67 2.8 W 7 9 4 5 1021.1 - 0.0
27/07:00pm 12.2 9.7 6.7 69 2.7 W 9 13 5 7 1020.9 1021.1 0.0
27/06:30pm 13.6 10.4 6.7 63 3.4 WNW 13 15 7 8 1020.6 - 0.0
27/06:00pm 14.7 10.8 7.0 60 3.8 W 17 20 9 11 1020.2 1020.4 0.0
27/05:30pm 15.5 11.5 6.8 56 4.3 W 17 24 9 13 1019.8 - 0.0
27/05:00pm 16.6 12.0 6.7 52 4.9 W 20 28 11 15 1019.4 1019.5 0.0
27/04:30pm 17.1 12.2 6.9 51 5.1 W 22 28 12 15 1019.2 - 0.0
27/04:00pm 17.8 12.9 7.0 49 5.5 W 22 28 12 15 1018.8 1019.0 0.0
27/03:30pm 18.0 12.3 6.8 48 5.7 WNW 26 32 14 17 1018.7 - 0.0
27/03:00pm 19.2 14.8 7.3 46 6.1 WNW 20 35 11 19 1018.5 1018.7 0.0
27/02:30pm 18.9 14.5 7.4 47 5.9 WNW 20 32 11 17 1018.5 - 0.0
27/02:00pm 18.8 14.3 6.9 46 6.0 W 20 30 11 16 1018.5 1018.7 0.0
27/01:30pm 18.5 14.2 7.0 47 5.9 W 19 28 10 15 1018.6 - 0.0
27/01:00pm 18.1 14.2 6.9 48 5.7 WNW 17 26 9 14 1019.0 1019.2 0.0
27/12:30pm 17.4 12.7 6.0 47 5.6 W 20 30 11 16 1019.7 - 0.0
27/12:00pm 17.2 12.3 6.7 50 5.2 W 22 30 12 16 1020.2 1020.4 0.0
27/11:30am 16.7 11.7 7.9 56 4.5 W 24 35 13 19 1020.7 - 0.0
27/11:00am 15.7 11.0 7.7 59 4.0 W 22 30 12 16 1021.2 1021.4 0.0
27/10:30am 14.6 9.5 7.6 63 3.5 W 24 35 13 19 1021.6 - 0.0
27/10:00am 13.8 8.7 7.6 66 3.1 W 24 37 13 20 1021.7 1021.9 0.0
27/09:30am 13.5 9.3 8.1 70 2.7 W 20 28 11 15 1021.8 - 0.0
27/09:00am 12.1 8.0 8.0 76 2.0 WNW 19 24 10 13 1021.6 1021.8 1.0
27/08:30am 10.7 8.5 9.3 91 0.7 WNW 11 17 6 9 1021.5 - 1.0
27/08:00am 9.4 7.2 9.3 99 0.0 NW 11 15 6 8 1021.2 1021.4 1.0
27/07:30am 7.4 5.6 7.3 99 0.0 N 6 6 3 3 1021.0 - 1.0
27/07:00am 6.7 4.6 6.6 99 0.0 N 7 9 4 5 1020.8 1021.0 1.0
27/06:30am 6.4 4.2 6.3 99 0.0 N 7 7 4 4 1020.4 - 1.0
27/06:00am 7.6 5.9 7.5 99 0.0 WNW 6 7 3 4 1019.9 1020.1 1.0
27/05:30am 8.0 6.2 7.9 99 0.0 W 7 9 4 5 1019.6 - 1.0
27/05:00am 8.7 7.2 8.6 99 0.0 W 6 7 3 4 1019.0 1019.2 1.0
27/04:30am 9.3 7.4 9.2 99 0.1 W 9 15 5 8 1018.8 - 1.0
27/04:00am 9.3 7.8 9.2 99 0.0 WSW 7 9 4 5 1018.8 1019.0 1.0
27/03:30am 10.3 8.3 10.1 99 0.1 W 11 13 6 7 1018.7 - 1.0
27/03:00am 10.7 8.8 10.5 99 0.1 WNW 11 11 6 6 1018.7 1018.9 1.0
27/02:30am 11.6 10.3 11.4 99 0.1 W 9 11 5 6 1018.7 - 1.0
27/02:00am 12.0 11.2 11.8 99 0.1 WNW 7 9 4 5 1018.6 1018.8 1.0
27/01:30am 12.2 11.5 12.0 99 0.1 WNW 7 9 4 5 1018.5 - 1.0
27/01:00am 12.5 11.9 12.3 99 0.1 W 7 9 4 5 1018.6 1018.8 1.0
27/12:30am 12.6 11.3 12.4 99 0.1 W 11 11 6 6 1018.6 - 1.0
27/12:00am 12.6 11.3 12.4 99 0.1 WSW 11 15 6 8 1018.5 1018.7 1.0
 
Date/Time
WST
Temp
°C
App
Temp
°C
Dew
Point
Rel
Hum
%
Delta-T
°C
Wind Press
QNH
hPa
Press
MSL
hPa
Rain
since 9 am
mm
Dir
 
Spd
km/h
Gust
km/h
Spd
kts
Gust
kts
26/11:30pm 13.1 11.2 12.9 99 0.1 WSW 15 20 8 11 1018.6 - 1.0
26/11:00pm 13.6 11.4 13.4 99 0.1 W 17 20 9 11 1018.6 1018.8 0.8
26/10:30pm 13.8 10.2 13.2 96 0.3 WNW 24 32 13 17 1018.5 - 0.2
26/10:00pm 14.2 11.7 12.4 89 1.0 W 17 24 9 13 1018.3 1018.5 0.0
26/09:30pm 14.8 12.0 11.2 79 1.9 W 17 20 9 11 1018.5 - 0.0
26/09:00pm 15.0 11.3 9.6 70 2.8 SW 19 24 10 13 1018.0 1018.2 0.0
26/08:30pm 14.7 12.5 5.2 53 4.5 SW 6 11 3 6 1017.8 - 0.0
26/08:00pm 15.6 12.4 4.9 49 5.1 WNW 11 17 6 9 1017.5 1017.7 0.0
26/07:30pm 16.3 12.1 3.7 43 5.9 NW 15 19 8 10 1017.1 - 0.0
26/07:00pm 16.0 11.4 3.8 44 5.7 NNW 17 20 9 11 1016.7 1016.9 0.0
26/06:30pm 16.4 11.8 3.5 42 6.0 NNW 17 20 9 11 1016.5 - 0.0
26/06:00pm 17.3 12.2 3.2 39 6.6 NW 19 24 10 13 1016.3 1016.4 0.0
26/05:30pm 18.0 12.3 3.1 37 7.0 NW 22 37 12 20 1016.1 - 0.0
26/05:00pm 19.5 12.8 1.5 30 8.3 WNW 26 41 14 22 1015.9 1016.0 0.0
26/04:30pm 20.5 13.5 1.9 29 8.7 WNW 28 41 15 22 1015.6 - 0.0
26/04:00pm 21.2 12.0 1.5 27 9.2 NW 39 52 21 28 1015.5 1015.6 0.0
26/03:33pm 21.5 12.4 1.7 27 9.3 NW 39 57 21 31 1015.2 - 0.0
26/03:30pm 21.6 12.6 2.3 28 9.2 NW 39 46 21 25 1015.0 - 0.0
26/03:00pm 21.7 13.0 1.9 27 9.3 NW 37 57 20 31 1014.7 1014.9 0.0
26/02:38pm 21.7 11.8 1.9 27 9.3 NNW 43 63 23 34 1014.6 - 0.0
26/02:30pm 21.6 11.8 2.3 28 9.2 NW 43 54 23 29 1014.8 - 0.0
26/02:10pm 21.7 13.0 1.9 27 9.3 NW 37 59 20 32 1015.0 - 0.0
26/02:00pm 21.8 12.4 2.5 28 9.2 NW 41 56 22 30 1014.9 1015.1 0.0
26/01:30pm 21.7 13.5 2.9 29 9.0 NW 35 57 19 31 1015.0 - 0.0
26/01:02pm 21.1 11.7 2.4 29 8.9 NW 41 59 22 32 1015.6 - 0.0
26/01:00pm 21.3 11.6 2.6 29 8.9 NW 43 57 23 31 1015.5 1015.6 0.0
26/12:35pm 21.0 12.1 2.8 30 8.7 NW 39 57 21 31 1015.7 - 0.0
26/12:30pm 20.9 12.4 3.2 31 8.5 NW 37 54 20 29 1015.9 - 0.0
26/12:00pm 19.8 11.7 3.5 34 7.8 NNW 35 50 19 27 1016.6 1016.8 0.0
26/11:30am 19.4 11.1 4.0 36 7.4 NNW 37 46 20 25 1017.3 - 0.0
26/11:00am 18.8 12.0 4.9 40 6.8 N 30 37 16 20 1017.8 1018.0 0.0
26/10:30am 17.5 11.8 5.1 44 6.0 N 24 33 13 18 1018.3 - 0.0

Other Formats:

Comma delimited format used in spreadsheet applications
http://www.bom.gov.au/fwo/IDW60801/IDW60801.95642.axf

JavaScript Object Notation format (JSON) in row-major order
http://www.bom.gov.au/fwo/IDW60801/IDW60801.95642.json